MST,Max TemperatureF,Mean TemperatureF,Min TemperatureF,Max Dew PointF,MeanDew PointF,Min DewpointF,Max Humidity, Mean Humidity, Min Humidity, Max Sea Level PressureIn, Mean Sea Level PressureIn, Min Sea Level PressureIn, Max VisibilityMiles, Mean VisibilityMiles, Min VisibilityMiles, Max Wind SpeedMPH, Mean Wind SpeedMPH, Max Gust SpeedMPH,PrecipitationIn, CloudCover, Events, WindDirDegrees
2013-12-1,37,30,24,28,26,23,96,80,66,30.33,30.22,30.10,10,10,1,18,7,30,0.00,8,Snow,237
2013-12-2,41,38,36,26,25,22,68,59,51,30.10,29.88,29.67,10,10,10,26,19,39,0.00,8,,213
2013-12-3,37,24,10,28,20,7,93,80,58,29.67,29.59,29.54,10,4,0,20,12,30,0.00,8,Snow,290
2013-12-4,10,-5,-20,7,-7,-27,85,72,53,30.00,29.77,29.55,10,6,1,28,11,32,0.00,5,Snow,16
2013-12-5,3,-10,-23,-6,-20,-30,75,69,61,29.98,29.94,29.89,10,10,7,7,2,,0.00,2,,130
2013-12-6,,,,,,,,,,,,,,,,,,,,,,
2013-12-7,24,20,16,18,15,8,93,79,60,29.80,29.67,29.62,10,6,1,15,8,24,0.00,8,Snow,226
2013-12-8,16,10,5,13,5,0,92,74,55,29.90,29.79,29.61,10,8,0,15,6,17,0.00,7,Snow,265
2013-12-9,13,4,-4,-1,-4,-11,72,55,46,30.32,30.25,30.16,10,10,7,18,9,25,0.00,4,,214
2013-12-10,22,12,2,10,2,-6,80,57,45,30.31,30.24,30.15,10,10,10,18,9,28,0.00,7,,242
2013-12-11,23,9,-5,10,0,-10,88,75,52,30.48,30.40,30.30,10,10,10,7,1,,0.00,0,,38
2013-12-12,27,13,-1,15,3,-6,84,75,56,30.48,30.33,30.14,10,10,10,8,2,,0.00,0,,44
2013-12-13,25,14,2,16,8,-2,89,76,60,30.27,30.11,30.05,10,10,10,7,1,,0.00,3,,3
2013-12-14,30,15,0,18,10,-3,91,75,55,30.44,30.39,30.28,10,10,10,16,4,21,0.00,3,Snow,232
2013-12-15,38,24,9,22,17,6,86,65,44,30.43,30.39,30.35,10,10,10,14,5,20,0.00,2,,261
2013-12-16,41,28,13,23,18,9,81,64,45,30.47,30.40,30.35,10,10,10,12,6,18,0.00,0,,282
2013-12-17,41,25,9,23,13,4,87,73,45,30.51,30.42,30.27,10,10,10,10,2,,0.00,0,,95
2013-12-18,44,29,14,26,18,10,84,64,34,30.25,30.05,29.81,10,10,10,20,3,25,0.00,2,,262
2013-12-19,42,30,18,32,25,16,91,74,51,29.79,29.71,29.65,10,9,2,22,6,33,0.00,6,Snow,244
2013-12-20,24,12,0,17,12,-3,92,83,64,29.81,29.78,29.71,10,7,0,13,3,,0.00,6,Snow,32
2013-12-21,25,16,6,20,13,2,94,86,74,29.95,29.76,29.65,10,6,1,10,3,9,0.00,8,Snow,64
2013-12-22,27,14,0,21,15,-4,92,80,68,30.21,30.08,29.96,10,9,3,20,6,25,0.00,8,Snow,227
2013-12-23,34,30,25,26,23,18,81,72,66,30.36,30.30,30.21,10,9,2,23,10,32,0.00,8,Snow,219
2013-12-24,34,18,3,28,16,0,87,72,49,30.44,30.29,30.14,10,9,2,23,14,33,0.00,4,Snow,251
2013-12-25,29,13,-3,11,2,-8,86,71,40,30.50,30.46,30.42,10,10,10,9,2,,0.00,0,,104
2013-12-26,33,17,1,16,5,-4,79,65,39,30.46,30.42,30.38,10,10,10,8,2,,0.00,0,,90
2013-12-27,37,21,5,19,10,2,87,72,42,30.47,30.37,30.22,10,10,10,8,1,,0.00,0,,71
2013-12-28,32,20,8,22,15,5,90,77,59,30.22,30.10,30.02,10,10,10,22,4,29,0.00,3,,346
2013-12-29,26,12,-3,16,8,-7,93,74,57,30.30,30.20,30.15,10,10,10,14,4,,0.00,2,,215
2013-12-30,34,26,19,17,15,12,79,62,45,30.34,30.26,30.18,10,10,10,14,4,18,0.00,5,,233
2013-12-31,39,31,23,29,23,17,88,66,53,30.25,30.17,30.07,10,10,2,21,9,29,0.00,8,Snow,234